createdAt,value
2022-09-11T00:03:38.702Z,13.40
2022-09-11T00:08:41.441Z,13.40
2022-09-11T00:13:44.253Z,13.40
2022-09-11T00:18:47.180Z,13.40
2022-09-11T00:23:50.375Z,13.40
2022-09-11T00:28:53.169Z,13.40
2022-09-11T00:33:56.109Z,13.40
2022-09-11T00:38:59.047Z,13.30
2022-09-11T00:44:02.382Z,13.40
2022-09-11T00:49:05.098Z,13.40
2022-09-11T00:54:07.961Z,13.40
2022-09-11T00:59:11.126Z,13.30
2022-09-11T01:04:13.848Z,13.50
2022-09-11T01:09:16.519Z,13.50
2022-09-11T01:14:19.225Z,13.50
2022-09-11T01:19:21.937Z,13.40
2022-09-11T01:24:24.592Z,13.40
2022-09-11T01:29:27.334Z,13.40
2022-09-11T01:34:30.035Z,13.50
2022-09-11T01:39:32.780Z,13.50
2022-09-11T01:44:35.446Z,13.50
2022-09-11T01:49:38.239Z,13.40
2022-09-11T01:54:41.992Z,11.90
2022-09-11T01:59:44.689Z,13.40
2022-09-11T02:04:47.355Z,13.50
2022-09-11T02:09:50.421Z,13.60
2022-09-11T02:14:53.349Z,13.50
2022-09-11T02:19:56.700Z,13.50
2022-09-11T02:24:59.421Z,13.50
2022-09-11T02:30:02.382Z,13.40
2022-09-11T02:35:05.083Z,13.30
2022-09-11T02:40:09.282Z,13.50
2022-09-11T02:45:12.212Z,13.40
2022-09-11T02:50:15.454Z,13.30
2022-09-11T02:55:19.173Z,13.30
2022-09-11T03:00:21.912Z,13.30
2022-09-11T03:05:26.137Z,13.40
2022-09-11T03:10:29.005Z,13.40
2022-09-11T03:15:32.052Z,13.30
2022-09-11T03:20:34.947Z,13.30
2022-09-11T03:25:37.818Z,13.20
2022-09-11T03:30:41.529Z,13.20
2022-09-11T03:35:44.776Z,13.10
2022-09-11T03:40:47.591Z,13.10
2022-09-11T03:45:51.150Z,12.80
2022-09-11T03:50:54.679Z,13.10
2022-09-11T03:55:58.038Z,13.20
2022-09-11T04:01:00.987Z,13.50
2022-09-11T04:06:06.797Z,13.70
2022-09-11T04:16:12.881Z,13.20
2022-09-11T04:21:15.569Z,13.40
2022-09-11T04:31:21.931Z,13.50
2022-09-11T04:36:27.016Z,13.20
2022-09-11T04:41:29.808Z,13.10
2022-09-11T04:46:32.544Z,13.20
2022-09-11T04:51:35.209Z,13.10
2022-09-11T04:56:38.870Z,13.20
2022-09-11T05:01:41.557Z,13.30
2022-09-11T05:06:48.292Z,13.20
2022-09-11T05:11:51.770Z,13.10
2022-09-11T05:16:55.098Z,13.30
2022-09-11T05:21:57.833Z,13.60
2022-09-11T05:27:01.392Z,13.30
2022-09-11T05:32:05.998Z,13.40
2022-09-11T05:37:08.794Z,13.40
2022-09-11T05:42:11.905Z,13.50
2022-09-11T05:47:17.355Z,13.50
2022-09-11T05:52:20.095Z,13.60
2022-09-11T05:57:22.758Z,13.60
2022-09-11T06:02:25.479Z,13.70
2022-09-11T06:07:28.143Z,13.70
2022-09-11T06:12:31.031Z,13.80
2022-09-11T06:22:37.679Z,13.90
2022-09-11T06:32:43.562Z,15.10
2022-09-11T06:37:46.252Z,14.20
2022-09-11T06:42:49.282Z,14.40
2022-09-11T06:47:52.177Z,14.40
2022-09-11T06:52:54.942Z,14.40
2022-09-11T06:57:57.730Z,14.50
2022-09-11T07:03:02.276Z,14.50
2022-09-11T07:08:05.529Z,14.60
2022-09-11T07:13:08.306Z,14.50
2022-09-11T07:18:12.318Z,14.50
2022-09-11T07:23:15.111Z,14.80
2022-09-11T07:28:17.881Z,15.00
2022-09-11T07:33:20.677Z,15.00
2022-09-11T07:38:23.526Z,15.10
2022-09-11T07:43:26.739Z,15.10
2022-09-11T07:48:29.497Z,15.30
2022-09-11T07:53:32.588Z,15.60
2022-09-11T07:58:36.038Z,16.00
2022-09-11T08:03:38.821Z,16.30
2022-09-11T08:08:42.054Z,16.60
2022-09-11T08:13:44.903Z,16.50
2022-09-11T08:18:48.152Z,16.60
2022-09-11T08:23:51.010Z,16.50
2022-09-11T08:28:53.820Z,16.60
2022-09-11T08:33:56.575Z,16.60
2022-09-11T08:39:00.260Z,16.40
2022-09-11T08:44:03.015Z,16.20
2022-09-11T08:49:05.920Z,16.10
2022-09-11T08:54:08.810Z,16.00
2022-09-11T08:59:11.749Z,16.00
2022-09-11T09:04:14.648Z,16.10
2022-09-11T09:09:18.562Z,16.20
2022-09-11T09:14:21.557Z,16.30
2022-09-11T09:19:24.987Z,16.20
2022-09-11T09:24:27.741Z,15.80
2022-09-11T09:29:30.573Z,15.50
2022-09-11T09:34:34.876Z,15.60
2022-09-11T09:39:38.173Z,15.60
2022-09-11T09:44:41.293Z,15.80
2022-09-11T09:49:44.550Z,15.90
2022-09-11T09:54:47.574Z,15.90
2022-09-11T09:59:50.436Z,16.00
2022-09-11T10:04:54.424Z,15.90
2022-09-11T10:09:59.018Z,15.80
2022-09-11T10:15:01.883Z,15.60
2022-09-11T10:20:05.470Z,15.70
2022-09-11T10:25:08.309Z,15.40
2022-09-11T10:30:11.113Z,15.30
2022-09-11T10:35:14.243Z,15.50
2022-09-11T10:40:18.142Z,15.80
2022-09-11T10:45:21.916Z,16.20
2022-09-11T10:50:29.277Z,16.80
2022-09-11T10:55:32.225Z,17.20
2022-09-11T11:00:35.867Z,17.20
2022-09-11T11:05:38.666Z,17.40
2022-09-11T11:10:42.508Z,17.60
2022-09-11T11:15:45.359Z,18.00
2022-09-11T11:20:48.458Z,18.20
2022-09-11T11:25:51.162Z,17.90
2022-09-11T11:30:55.277Z,17.80
2022-09-11T11:35:58.054Z,17.90
2022-09-11T11:41:03.239Z,17.10
2022-09-11T11:46:06.105Z,16.50
2022-09-11T11:51:08.915Z,16.60
2022-09-11T11:56:14.264Z,16.90
2022-09-11T12:01:16.993Z,17.50
2022-09-11T12:06:20.623Z,18.00
2022-09-11T12:11:24.837Z,18.60
2022-09-11T12:16:29.254Z,18.20
2022-09-11T12:21:32.530Z,17.80
2022-09-11T12:26:35.249Z,17.60
2022-09-11T12:31:37.973Z,17.80
2022-09-11T12:36:40.866Z,18.20
2022-09-11T12:41:43.578Z,18.20
2022-09-11T12:46:47.979Z,18.00
2022-09-11T12:51:51.095Z,17.70
2022-09-11T12:57:01.714Z,17.40
2022-09-11T13:02:08.981Z,17.50
2022-09-11T13:07:11.992Z,17.30
2022-09-11T13:12:14.726Z,16.70
2022-09-11T13:17:18.439Z,16.20
2022-09-11T13:22:21.464Z,15.90
2022-09-11T13:27:26.721Z,16.30
2022-09-11T13:32:29.898Z,16.80
2022-09-11T13:37:32.973Z,17.50
2022-09-11T13:42:36.297Z,18.20
2022-09-11T13:47:39.422Z,18.40
2022-09-11T13:52:46.234Z,18.30
2022-09-11T13:57:49.293Z,18.10
2022-09-11T14:02:53.141Z,18.20
2022-09-11T14:07:56.747Z,18.30
2022-09-11T14:13:00.450Z,18.50
2022-09-11T14:18:03.452Z,18.60
2022-09-11T14:23:06.156Z,18.70
2022-09-11T14:28:09.454Z,18.70
2022-09-11T14:33:12.290Z,18.60
2022-09-11T14:38:15.542Z,18.80
2022-09-11T14:43:21.121Z,19.00
2022-09-11T14:48:24.101Z,18.80
2022-09-11T14:53:26.905Z,18.70
2022-09-11T14:58:29.648Z,18.60
2022-09-11T15:03:32.447Z,18.40
2022-09-11T15:08:35.610Z,18.40
2022-09-11T15:13:48.184Z,18.10
2022-09-11T15:19:01.096Z,17.90
2022-09-11T15:24:05.369Z,18.00
2022-09-11T15:29:10.227Z,17.90
2022-09-11T15:34:12.940Z,18.00
2022-09-11T15:39:15.877Z,17.90
2022-09-11T15:44:19.976Z,18.10
2022-09-11T15:49:22.950Z,18.20
2022-09-11T15:54:25.818Z,18.20
2022-09-11T15:59:28.688Z,18.00
2022-09-11T16:04:34.887Z,17.90
2022-09-11T16:09:38.686Z,17.90
2022-09-11T16:14:41.525Z,17.90
2022-09-11T16:19:44.980Z,17.80
2022-09-11T16:24:47.805Z,17.70
2022-09-11T16:30:20.601Z,17.60
2022-09-11T16:35:14.229Z,17.50
2022-09-11T16:40:17.148Z,17.40
2022-09-11T16:45:19.892Z,17.30
2022-09-11T16:50:24.333Z,17.30
2022-09-11T16:55:27.121Z,17.00
2022-09-11T17:00:29.916Z,16.90
2022-09-11T17:05:32.658Z,16.80
2022-09-11T17:10:35.436Z,16.60
2022-09-11T17:15:39.153Z,16.60
2022-09-11T17:20:42.499Z,16.50
2022-09-11T17:25:45.678Z,16.30
2022-09-11T17:30:48.373Z,16.30
2022-09-11T17:35:51.646Z,16.10
2022-09-11T17:40:57.035Z,16.00
2022-09-11T17:46:00.206Z,15.90
2022-09-11T17:51:03.399Z,15.90
2022-09-11T17:56:06.174Z,15.90
2022-09-11T18:01:10.197Z,15.80
2022-09-11T18:06:14.614Z,15.80
2022-09-11T18:11:17.366Z,15.80
2022-09-11T18:16:20.162Z,15.70
2022-09-11T18:21:23.047Z,15.90
2022-09-11T18:26:26.208Z,15.80
2022-09-11T18:31:36.891Z,15.60
2022-09-11T18:36:39.884Z,15.50
2022-09-11T18:41:44.345Z,15.30
2022-09-11T18:46:47.770Z,15.20
2022-09-11T18:51:50.602Z,15.00
2022-09-11T18:56:53.484Z,14.80
2022-09-11T19:01:56.252Z,14.80
2022-09-11T19:07:00.291Z,15.30
2022-09-11T19:12:03.912Z,14.50
2022-09-11T19:17:06.642Z,14.50
2022-09-11T19:22:09.366Z,14.50
2022-09-11T19:27:12.746Z,14.60
2022-09-11T19:32:16.329Z,14.50
2022-09-11T19:37:20.156Z,14.40
2022-09-11T19:42:24.030Z,14.30
2022-09-11T19:47:27.201Z,14.30
2022-09-11T19:52:33.061Z,14.20
2022-09-11T19:57:36.573Z,14.00
2022-09-11T20:02:39.382Z,14.00
2022-09-11T20:07:42.207Z,13.90
2022-09-11T20:12:45.033Z,13.80
2022-09-11T20:17:48.797Z,13.80
2022-09-11T20:22:51.546Z,13.70
2022-09-11T20:28:00.401Z,13.60
2022-09-11T20:33:06.088Z,13.60
2022-09-11T20:38:08.782Z,13.50
2022-09-11T20:43:11.991Z,13.50
2022-09-11T20:48:14.722Z,13.40
2022-09-11T20:53:22.840Z,13.30
2022-09-11T20:58:25.609Z,13.20
2022-09-11T21:03:28.394Z,13.20
2022-09-11T21:08:31.091Z,13.10
2022-09-11T21:13:33.795Z,13.10
2022-09-11T21:18:36.514Z,13.00
2022-09-11T21:23:39.186Z,13.00
2022-09-11T21:28:41.857Z,12.90
2022-09-11T21:33:44.814Z,12.80
2022-09-11T21:38:47.544Z,12.80
2022-09-11T21:43:50.415Z,12.80
2022-09-11T21:48:53.172Z,12.70
2022-09-11T21:53:57.710Z,12.60
2022-09-11T21:59:00.409Z,12.60
2022-09-11T22:04:03.085Z,12.50
2022-09-11T22:09:05.792Z,12.50
2022-09-11T22:14:20.243Z,12.60
2022-09-11T22:19:22.915Z,12.60
2022-09-11T22:24:25.593Z,12.40
2022-09-11T22:29:28.447Z,12.40
2022-09-11T22:34:31.268Z,12.50
2022-09-11T22:39:34.536Z,12.50
2022-09-11T22:44:37.378Z,12.50
2022-09-11T22:49:40.109Z,12.40
2022-09-11T22:54:44.129Z,12.30
2022-09-11T22:59:47.265Z,12.30
2022-09-11T23:05:03.822Z,12.20
2022-09-11T23:10:06.583Z,12.10
2022-09-11T23:15:09.345Z,12.00
2022-09-11T23:20:12.084Z,11.90
2022-09-11T23:25:15.161Z,11.90
2022-09-11T23:30:17.880Z,11.80
2022-09-11T23:35:20.560Z,11.80
2022-09-11T23:40:23.299Z,11.80
2022-09-11T23:45:26.041Z,11.90
2022-09-11T23:50:28.817Z,11.80
2022-09-11T23:55:31.909Z,11.80
